Time;durP1;ratioP1;P1;durP2;ratioP2;P2;SDS_P1;SDS_P2;PMS_P1;PMS_P2;Temp;Humidity;BMP_temperature;BMP_pressure;BME280_temperature;BME280_humidity;BME280_pressure;Samples;Min_cycle;Max_cycle;Signal;HPM_P1;HPM_P2
2022/07/27 00:01:30;;;;;;;3.15;2.30;;;18.40;88.60;;;;;;5005196;28;20038;-81
2022/07/27 00:03:56;;;;;;;2.67;2.10;;;18.30;88.70;;;;;;5026500;28;20047;-81
2022/07/27 00:06:22;;;;;;;3.33;2.40;;;18.30;88.70;;;;;;5019914;28;20072;-79
2022/07/27 00:08:48;;;;;;;2.95;2.20;;;18.30;88.80;;;;;;5034502;28;20510;-80
2022/07/27 00:11:14;;;;;;;2.22;2.13;;;18.30;88.40;;;;;;5016877;28;20029;-81
2022/07/27 00:13:40;;;;;;;2.53;2.33;;;18.30;89.00;;;;;;5040338;28;20053;-82
2022/07/27 00:16:06;;;;;;;2.58;2.30;;;18.30;89.40;;;;;;5031775;28;20051;-80
2022/07/27 00:18:32;;;;;;;3.63;2.33;;;18.30;89.00;;;;;;5037542;28;20061;-80
2022/07/27 00:20:58;;;;;;;3.10;2.40;;;18.30;88.60;;;;;;5033956;28;20428;-80
2022/07/27 00:23:24;;;;;;;2.65;2.45;;;18.30;88.10;;;;;;5049109;28;20028;-80
2022/07/27 00:25:49;;;;;;;3.13;2.40;;;18.30;88.20;;;;;;5043817;28;20506;-81
2022/07/27 00:28:15;;;;;;;2.88;2.30;;;18.30;88.20;;;;;;5044137;28;20023;-81
2022/07/27 00:30:41;;;;;;;2.55;2.35;;;18.30;88.40;;;;;;5036297;28;20026;-80
2022/07/27 00:33:07;;;;;;;3.35;1.98;;;18.20;88.20;;;;;;5024712;28;20041;-80
2022/07/27 00:35:33;;;;;;;5.82;2.50;;;18.20;88.90;;;;;;5036812;28;20040;-79
2022/07/27 00:37:59;;;;;;;3.55;2.40;;;18.20;89.40;;;;;;5011641;28;20504;-79
2022/07/27 00:40:25;;;;;;;3.20;2.17;;;18.20;89.70;;;;;;5007625;28;20435;-81
2022/07/27 00:42:51;;;;;;;2.30;2.10;;;18.10;89.20;;;;;;5037801;28;20037;-80
2022/07/27 00:45:16;;;;;;;3.90;2.30;;;18.10;89.60;;;;;;5042905;28;20037;-79
2022/07/27 00:47:42;;;;;;;4.07;2.28;;;18.10;89.10;;;;;;5002402;28;20030;-80
2022/07/27 00:50:08;;;;;;;3.75;2.38;;;18.10;89.40;;;;;;5027940;28;20541;-80
2022/07/27 00:52:36;;;;;;;3.28;2.05;;;18.10;89.40;;;;;;5039128;28;20164;-81
2022/07/27 00:55:02;;;;;;;2.85;2.33;;;18.00;89.30;;;;;;5027091;28;20041;-78
2022/07/27 00:57:28;;;;;;;2.42;2.25;;;18.10;89.60;;;;;;5043488;28;20577;-80
2022/07/27 00:59:54;;;;;;;2.80;2.13;;;18.00;89.70;;;;;;5043155;28;20186;-80
2022/07/27 01:02:20;;;;;;;2.13;1.88;;;18.00;89.80;;;;;;5037152;28;20033;-79
2022/07/27 01:04:46;;;;;;;2.70;2.22;;;18.00;89.90;;;;;;5042287;28;20040;-79
2022/07/27 01:07:12;;;;;;;2.28;2.10;;;18.00;90.00;;;;;;4996440;28;20041;-80
2022/07/27 01:09:56;;;;;;;1.75;1.65;;;18.00;90.10;;;;;;5038675;28;20029;-80
2022/07/27 01:12:22;;;;;;;3.47;2.17;;;18.00;90.20;;;;;;5038412;28;20108;-80
2022/07/27 01:14:49;;;;;;;2.60;2.40;;;18.00;90.40;;;;;;5042546;28;20480;-81
2022/07/27 01:17:15;;;;;;;2.50;2.30;;;18.00;90.60;;;;;;5041084;28;20045;-81
2022/07/27 01:19:41;;;;;;;2.40;2.20;;;17.90;90.80;;;;;;5033425;28;20041;-81
2022/07/27 01:22:08;;;;;;;2.13;1.92;;;18.00;91.00;;;;;;5047120;28;20028;-80
2022/07/27 01:24:34;;;;;;;2.35;1.90;;;17.90;91.10;;;;;;5044561;28;20113;-81
2022/07/27 01:27:02;;;;;;;2.25;2.05;;;17.90;91.10;;;;;;5048524;28;20395;-80
2022/07/27 01:29:29;;;;;;;2.25;2.03;;;17.80;91.00;;;;;;5049498;28;20033;-81
2022/07/27 01:31:55;;;;;;;2.00;1.90;;;17.80;91.10;;;;;;5050658;28;20028;-81
2022/07/27 01:34:21;;;;;;;3.13;1.88;;;17.80;91.20;;;;;;5055767;28;20516;-80
2022/07/27 01:36:47;;;;;;;4.05;2.45;;;17.70;91.10;;;;;;5025033;28;20133;-80
2022/07/27 01:39:14;;;;;;;2.08;1.88;;;17.70;91.10;;;;;;5005412;28;20099;-79
2022/07/27 01:41:40;;;;;;;4.07;2.30;;;17.60;91.20;;;;;;5035191;28;20495;-81
2022/07/27 01:44:06;;;;;;;2.78;2.22;;;17.60;91.20;;;;;;5020479;28;20171;-80
2022/07/27 01:46:32;;;;;;;2.30;2.10;;;17.60;91.40;;;;;;5038529;28;20103;-79
2022/07/27 01:48:57;;;;;;;2.00;1.90;;;17.50;91.60;;;;;;5038557;28;20037;-79
2022/07/27 01:51:23;;;;;;;2.00;1.90;;;17.50;91.60;;;;;;5039755;28;20033;-80
2022/07/27 01:53:49;;;;;;;2.92;2.10;;;17.50;91.60;;;;;;5045494;28;20033;-81
2022/07/27 01:56:15;;;;;;;2.10;2.00;;;17.50;91.70;;;;;;5043507;28;20060;-79
2022/07/27 01:58:42;;;;;;;2.25;2.00;;;17.50;91.80;;;;;;5025530;28;20058;-80
2022/07/27 02:01:08;;;;;;;2.78;2.10;;;17.50;91.80;;;;;;5028114;28;20059;-79
2022/07/27 02:03:35;;;;;;;2.47;2.22;;;17.50;91.90;;;;;;5045958;28;20443;-79
2022/07/27 02:06:01;;;;;;;5.00;2.25;;;17.50;92.00;;;;;;5043494;28;20029;-78
2022/07/27 02:08:27;;;;;;;3.35;2.25;;;17.40;92.20;;;;;;5038572;28;20017;-79
2022/07/27 02:13:38;;;;;;;3.10;2.30;;;17.40;92.30;;;;;;5040635;28;20072;-79
2022/07/27 02:16:04;;;;;;;2.45;2.30;;;17.40;92.70;;;;;;5009287;28;20048;-80
2022/07/27 02:18:30;;;;;;;3.20;2.00;;;17.30;92.90;;;;;;5044842;28;20025;-80
2022/07/27 02:20:56;;;;;;;2.58;2.38;;;17.40;92.90;;;;;;5022375;28;20511;-80
2022/07/27 02:23:21;;;;;;;2.10;2.00;;;17.30;92.90;;;;;;5038293;28;20033;-80
2022/07/27 02:25:47;;;;;;;1.92;1.80;;;17.30;92.90;;;;;;5026058;28;20037;-79
2022/07/27 02:28:13;;;;;;;2.58;1.90;;;17.30;93.00;;;;;;5033559;28;20033;-81
2022/07/27 02:30:39;;;;;;;6.75;2.17;;;17.40;93.30;;;;;;5034805;28;20026;-80
2022/07/27 02:33:05;;;;;;;2.53;1.85;;;17.30;93.20;;;;;;5042875;28;20522;-79
2022/07/27 02:35:31;;;;;;;2.10;2.00;;;17.40;93.30;;;;;;5025903;28;20033;-79
2022/07/27 02:37:56;;;;;;;3.33;1.90;;;17.40;93.40;;;;;;5002074;28;20072;-80
2022/07/27 02:40:23;;;;;;;2.72;2.15;;;17.40;93.50;;;;;;5037069;28;20732;-79
2022/07/27 02:42:48;;;;;;;2.05;1.90;;;17.40;93.50;;;;;;5042149;28;20389;-80
2022/07/27 02:45:15;;;;;;;1.90;1.80;;;17.40;93.60;;;;;;5040634;28;20033;-80
2022/07/27 02:47:42;;;;;;;1.65;1.55;;;17.30;93.70;;;;;;5043780;28;20065;-78
2022/07/27 02:50:08;;;;;;;1.65;1.55;;;17.40;93.90;;;;;;5015877;28;20053;-80
2022/07/27 02:52:35;;;;;;;1.98;1.77;;;17.40;93.90;;;;;;5039377;28;20492;-80
2022/07/27 02:55:01;;;;;;;2.38;1.73;;;17.30;94.20;;;;;;5047333;28;20030;-79
2022/07/27 02:57:26;;;;;;;3.72;1.80;;;17.40;94.10;;;;;;5040185;28;20045;-80
2022/07/27 02:59:52;;;;;;;3.13;1.90;;;17.30;94.20;;;;;;5043493;28;20045;-79
2022/07/27 03:02:18;;;;;;;3.47;2.28;;;17.30;94.40;;;;;;5020419;28;20391;-79
2022/07/27 03:04:44;;;;;;;2.88;2.13;;;17.30;94.60;;;;;;5036357;28;20041;-79
2022/07/27 03:07:10;;;;;;;1.63;1.50;;;17.20;94.80;;;;;;5022847;28;20040;-78
2022/07/27 03:09:36;;;;;;;1.80;1.70;;;17.30;94.70;;;;;;5042169;28;20041;-80
2022/07/27 03:12:02;;;;;;;1.85;1.48;;;17.20;94.80;;;;;;5025662;28;20060;-79
2022/07/27 03:14:28;;;;;;;1.75;1.40;;;17.20;94.80;;;;;;5046087;28;20476;-79
2022/07/27 03:16:54;;;;;;;1.45;1.35;;;17.20;95.10;;;;;;5042408;28;20137;-80
2022/07/27 03:19:19;;;;;;;2.50;1.92;;;17.20;95.60;;;;;;5009243;28;20083;-80
2022/07/27 03:21:45;;;;;;;2.22;1.73;;;17.20;95.40;;;;;;5025411;28;20704;-80
2022/07/27 03:24:11;;;;;;;2.00;1.70;;;17.20;95.60;;;;;;5044613;28;20036;-80
2022/07/27 03:26:37;;;;;;;1.60;1.50;;;17.20;95.80;;;;;;5036159;28;20038;-79
2022/07/27 03:29:03;;;;;;;2.15;1.73;;;17.20;96.10;;;;;;5006283;28;20037;-79
2022/07/27 03:31:29;;;;;;;3.30;1.65;;;17.20;96.10;;;;;;5008453;28;20139;-79
2022/07/27 03:33:54;;;;;;;2.00;1.45;;;17.20;96.40;;;;;;5041184;28;20035;-79
2022/07/27 03:36:20;;;;;;;1.65;1.55;;;17.20;96.60;;;;;;5039416;28;20056;-79
2022/07/27 03:38:46;;;;;;;2.65;1.58;;;17.10;96.70;;;;;;5043162;28;20420;-79
2022/07/27 03:41:12;;;;;;;1.70;1.40;;;17.10;97.00;;;;;;5024454;28;20500;-80
2022/07/27 03:43:38;;;;;;;1.73;1.50;;;17.10;97.10;;;;;;5041183;28;20025;-79
2022/07/27 03:46:04;;;;;;;3.67;1.70;;;17.00;97.20;;;;;;5043172;28;20032;-79
2022/07/27 03:48:30;;;;;;;1.75;1.65;;;17.00;97.50;;;;;;5039997;28;20687;-80
2022/07/27 03:50:56;;;;;;;1.50;1.40;;;17.00;97.80;;;;;;5040971;28;20051;-80
2022/07/27 03:53:22;;;;;;;1.55;1.45;;;17.00;98.10;;;;;;5015410;28;20044;-81
2022/07/27 03:55:48;;;;;;;1.75;1.55;;;16.90;98.40;;;;;;5040089;28;20037;-80
2022/07/27 03:58:15;;;;;;;4.07;1.40;;;16.90;98.60;;;;;;5033461;28;20032;-80
2022/07/27 04:00:40;;;;;;;2.88;1.52;;;16.90;98.90;;;;;;5024394;28;20082;-80
2022/07/27 04:03:06;;;;;;;1.40;1.30;;;16.90;99.30;;;;;;5034500;28;20034;-79
2022/07/27 04:05:32;;;;;;;2.13;1.80;;;16.80;99.60;;;;;;5032805;28;20029;-80
2022/07/27 04:07:57;;;;;;;1.67;1.58;;;16.90;99.70;;;;;;5038751;28;20056;-78
2022/07/27 04:10:24;;;;;;;3.20;1.60;;;16.80;99.90;;;;;;5025267;28;20021;-79
2022/07/27 04:12:50;;;;;;;2.58;1.70;;;16.80;99.90;;;;;;5039488;28;20396;-79
2022/07/27 04:15:17;;;;;;;2.33;1.75;;;16.90;99.90;;;;;;5023634;28;20034;-80
2022/07/27 04:17:44;;;;;;;2.25;1.90;;;16.90;99.90;;;;;;5043868;28;20032;-81
2022/07/27 04:20:10;;;;;;;1.50;1.40;;;16.90;99.90;;;;;;5016854;28;20059;-79
2022/07/27 04:22:36;;;;;;;1.50;1.40;;;17.00;99.90;;;;;;5020142;28;20022;-79
2022/07/27 04:25:02;;;;;;;3.35;1.50;;;17.00;99.90;;;;;;5022885;28;20187;-79
2022/07/27 04:27:28;;;;;;;2.55;1.65;;;17.00;99.90;;;;;;5041100;28;20030;-79
2022/07/27 04:29:53;;;;;;;4.15;2.13;;;17.00;99.90;;;;;;5024594;28;20623;-79
2022/07/27 04:32:19;;;;;;;2.25;1.83;;;17.00;99.90;;;;;;5035958;28;20026;-80
2022/07/27 04:34:45;;;;;;;2.58;1.75;;;17.00;99.90;;;;;;5036198;28;20490;-80
2022/07/27 04:37:11;;;;;;;3.38;2.00;;;17.00;99.90;;;;;;5035633;28;20033;-79
2022/07/27 04:39:37;;;;;;;3.85;2.13;;;17.00;99.90;;;;;;5021490;28;20029;-79
2022/07/27 04:42:03;;;;;;;3.60;2.17;;;17.00;99.90;;;;;;5032468;28;20033;-80
2022/07/27 04:44:28;;;;;;;2.28;2.10;;;17.00;99.90;;;;;;5032242;28;20029;-79
2022/07/27 04:46:54;;;;;;;2.20;2.00;;;17.00;99.90;;;;;;5042665;28;20025;-80
2022/07/27 04:49:20;;;;;;;2.17;2.08;;;17.00;99.90;;;;;;5032075;28;20144;-80
2022/07/27 04:51:46;;;;;;;2.22;2.00;;;17.00;99.90;;;;;;4998942;28;20034;-79
2022/07/27 04:54:12;;;;;;;3.20;2.28;;;17.10;99.90;;;;;;5021217;28;20087;-80
2022/07/27 04:56:38;;;;;;;2.47;2.28;;;17.10;99.90;;;;;;5020763;28;20135;-80
2022/07/27 04:59:04;;;;;;;4.28;2.65;;;17.10;99.90;;;;;;5019419;28;20037;-79
2022/07/27 05:01:29;;;;;;;3.42;2.28;;;17.20;99.90;;;;;;5035533;28;20029;-78
2022/07/27 05:03:55;;;;;;;1.77;1.67;;;17.30;99.90;;;;;;5001629;28;20034;-79
2022/07/27 05:06:21;;;;;;;3.75;1.98;;;17.40;99.90;;;;;;5015423;28;20032;-80
2022/07/27 05:08:46;;;;;;;2.58;2.05;;;17.50;99.90;;;;;;5032569;28;20503;-80
2022/07/27 05:11:12;;;;;;;3.60;2.10;;;17.50;99.90;;;;;;5032030;28;20435;-80
2022/07/27 05:13:41;;;;;;;6.35;2.08;;;17.50;99.90;;;;;;5026486;28;20030;-79
2022/07/27 05:16:10;;;;;;;2.60;2.40;;;17.50;99.90;;;;;;5043932;28;20056;-79
2022/07/27 05:18:37;;;;;;;2.30;1.92;;;17.50;99.90;;;;;;5043843;28;20029;-80
2022/07/27 05:21:04;;;;;;;2.55;1.90;;;17.40;99.90;;;;;;5017572;28;20471;-78
2022/07/27 05:23:30;;;;;;;2.35;1.95;;;17.40;99.90;;;;;;5037481;28;20036;-79
2022/07/27 05:25:55;;;;;;;3.17;1.85;;;17.40;99.90;;;;;;5032373;28;20368;-81
2022/07/27 05:28:21;;;;;;;1.92;1.70;;;17.40;99.90;;;;;;5027691;28;20107;-80
2022/07/27 05:30:47;;;;;;;1.67;1.42;;;17.40;99.90;;;;;;5027079;28;20124;-79
2022/07/27 05:33:13;;;;;;;2.50;1.85;;;17.40;99.90;;;;;;5022235;28;20092;-79
2022/07/27 05:35:38;;;;;;;2.08;1.80;;;17.30;99.90;;;;;;5028335;28;20030;-79
2022/07/27 05:38:04;;;;;;;1.70;1.52;;;17.40;99.90;;;;;;5004920;28;20040;-78
2022/07/27 05:40:30;;;;;;;2.50;1.63;;;17.40;99.90;;;;;;5024462;28;20063;-78
2022/07/27 05:42:56;;;;;;;3.30;1.90;;;17.40;99.90;;;;;;5026397;28;20093;-78
2022/07/27 05:45:22;;;;;;;2.13;1.80;;;17.50;99.90;;;;;;5029421;28;20033;-80
2022/07/27 05:47:48;;;;;;;3.33;1.60;;;17.50;99.90;;;;;;5040567;28;20047;-78
2022/07/27 05:50:15;;;;;;;2.63;1.75;;;17.60;99.90;;;;;;5039702;28;20480;-79
2022/07/27 05:52:42;;;;;;;3.10;1.80;;;17.60;99.90;;;;;;5044851;28;20018;-80
2022/07/27 05:55:08;;;;;;;1.88;1.60;;;17.70;99.90;;;;;;5040903;28;20040;-79
2022/07/27 05:57:35;;;;;;;3.22;2.30;;;17.80;99.90;;;;;;5028247;28;20025;-79
2022/07/27 06:00:00;;;;;;;3.45;2.10;;;17.90;99.90;;;;;;5024003;28;20045;-79
2022/07/27 06:02:30;;;;;;;2.15;1.95;;;18.00;99.90;;;;;;5007222;28;20029;-79
2022/07/27 06:04:56;;;;;;;3.30;2.00;;;18.00;99.90;;;;;;5040402;28;20021;-79
2022/07/27 06:10:07;;;;;;;3.45;1.92;;;18.20;99.90;;;;;;5034465;28;20464;-79
2022/07/27 06:12:40;;;;;;;3.22;1.75;;;18.20;99.90;;;;;;5001697;28;20026;-81
2022/07/27 06:15:09;;;;;;;3.38;1.90;;;18.20;99.90;;;;;;5009317;28;20675;-78
2022/07/27 06:17:36;;;;;;;1.95;1.67;;;18.20;99.90;;;;;;5015611;28;20045;-78
2022/07/27 06:20:04;;;;;;;3.65;1.67;;;18.20;99.90;;;;;;5030534;28;20029;-80
2022/07/27 06:22:30;;;;;;;4.47;2.22;;;18.20;99.90;;;;;;5032385;28;20051;-80
2022/07/27 06:24:56;;;;;;;3.08;2.15;;;18.20;99.90;;;;;;5016128;28;20045;-82
2022/07/27 06:27:21;;;;;;;3.13;1.90;;;18.10;99.90;;;;;;5017044;28;20025;-80
2022/07/27 06:29:47;;;;;;;4.43;1.88;;;18.00;99.90;;;;;;5023046;28;20111;-79
2022/07/27 06:32:13;;;;;;;4.60;2.17;;;18.00;99.90;;;;;;5031723;28;20026;-79
2022/07/27 06:34:39;;;;;;;4.03;2.10;;;18.00;99.90;;;;;;5046120;28;20403;-80
2022/07/27 06:37:04;;;;;;;2.80;2.30;;;17.80;99.90;;;;;;5008248;28;20036;-79
2022/07/27 06:39:30;;;;;;;2.97;2.35;;;17.80;99.90;;;;;;5034854;28;20029;-80
2022/07/27 06:41:56;;;;;;;5.53;2.38;;;17.70;99.90;;;;;;4999648;28;20463;-81
2022/07/27 06:44:22;;;;;;;9.80;2.35;;;17.60;99.90;;;;;;5021364;28;20541;-80
2022/07/27 06:46:48;;;;;;;3.67;2.60;;;17.60;99.90;;;;;;5048338;28;20048;-82
2022/07/27 06:49:14;;;;;;;2.65;2.45;;;17.60;99.90;;;;;;5051004;28;20026;-83
2022/07/27 06:51:39;;;;;;;4.05;2.45;;;17.50;99.90;;;;;;5016371;28;20049;-82
2022/07/27 06:54:05;;;;;;;4.35;2.50;;;17.40;99.90;;;;;;5041034;28;20044;-83
2022/07/27 06:56:31;;;;;;;3.30;2.70;;;17.40;99.90;;;;;;5017400;28;20040;-83
2022/07/27 06:58:58;;;;;;;2.60;2.35;;;17.40;99.90;;;;;;5038590;28;20041;-83
2022/07/27 07:01:23;;;;;;;3.00;2.60;;;17.40;99.90;;;;;;5035729;28;20103;-82
2022/07/27 07:03:49;;;;;;;2.85;2.25;;;17.50;99.90;;;;;;5026125;28;20033;-83
2022/07/27 07:06:15;;;;;;;3.28;2.75;;;17.50;99.90;;;;;;5027132;28;20044;-83
2022/07/27 07:08:41;;;;;;;3.83;2.45;;;17.70;99.90;;;;;;4994659;28;20025;-82
2022/07/27 07:11:10;;;;;;;3.35;2.15;;;17.80;99.90;;;;;;5016481;28;20150;-80
2022/07/27 07:13:36;;;;;;;3.95;2.50;;;17.80;99.90;;;;;;5026163;28;20032;-83
2022/07/27 07:16:02;;;;;;;3.58;2.30;;;18.00;99.90;;;;;;5000409;28;20458;-81
2022/07/27 07:18:28;;;;;;;3.45;2.33;;;18.00;99.90;;;;;;5019448;28;20040;-81
2022/07/27 07:20:54;;;;;;;2.60;2.40;;;18.20;99.90;;;;;;5021073;28;20040;-84
2022/07/27 07:23:20;;;;;;;6.60;1.90;;;18.40;99.90;;;;;;5028097;28;20056;-84
2022/07/27 07:25:46;;;;;;;5.30;2.20;;;18.70;99.90;;;;;;4988808;28;20503;-81
2022/07/27 07:28:11;;;;;;;4.38;2.45;;;19.00;99.90;;;;;;5008095;28;20030;-82
2022/07/27 07:30:37;;;;;;;3.63;2.08;;;19.30;99.90;;;;;;5012316;28;20033;-80
2022/07/27 07:33:03;;;;;;;7.45;2.40;;;19.40;99.90;;;;;;5015113;28;20022;-81
2022/07/27 07:35:29;;;;;;;3.33;1.92;;;19.60;99.90;;;;;;4987727;28;20080;-80
2022/07/27 07:37:55;;;;;;;3.58;2.25;;;19.80;99.90;;;;;;5033720;28;20320;-80
2022/07/27 07:40:21;;;;;;;2.50;1.80;;;20.10;99.90;;;;;;5022516;28;20044;-80
2022/07/27 07:42:51;;;;;;;3.97;1.80;;;20.30;99.40;;;;;;5034684;28;20470;-80
2022/07/27 07:45:18;;;;;;;4.57;1.80;;;20.50;98.90;;;;;;5043179;28;20029;-83
2022/07/27 07:47:43;;;;;;;3.38;2.03;;;20.60;98.30;;;;;;5044837;28;20021;-81
2022/07/27 07:50:09;;;;;;;5.68;1.95;;;20.50;98.10;;;;;;5007968;28;20026;-80
2022/07/27 07:52:35;;;;;;;3.67;2.17;;;20.60;98.90;;;;;;5045832;28;20021;-80
2022/07/27 07:55:01;;;;;;;3.75;2.20;;;20.80;98.10;;;;;;5045241;28;20033;-81
2022/07/27 07:57:26;;;;;;;2.53;2.00;;;20.90;97.10;;;;;;5036293;28;20026;-81
2022/07/27 07:59:52;;;;;;;2.58;2.30;;;20.80;97.10;;;;;;5015141;28;20034;-80
2022/07/27 08:02:20;;;;;;;6.80;2.58;;;20.60;97.60;;;;;;5007871;28;20651;-79
2022/07/27 08:04:46;;;;;;;2.60;2.42;;;20.40;98.10;;;;;;4988941;28;20104;-80
2022/07/27 08:07:12;;;;;;;4.32;2.72;;;20.20;98.20;;;;;;5023862;28;20037;-80
2022/07/27 08:09:38;;;;;;;3.20;2.63;;;20.10;98.90;;;;;;5039732;28;20036;-82
2022/07/27 08:12:05;;;;;;;3.95;3.65;;;20.00;98.80;;;;;;5040297;28;20032;-81
2022/07/27 08:14:32;;;;;;;4.00;2.83;;;19.90;99.10;;;;;;5023436;28;20038;-82
2022/07/27 08:16:58;;;;;;;4.97;4.03;;;19.80;99.20;;;;;;5040539;28;20061;-81
2022/07/27 08:19:23;;;;;;;4.68;3.42;;;19.70;99.30;;;;;;5035186;28;20484;-81
2022/07/27 08:21:49;;;;;;;4.57;3.65;;;19.50;99.50;;;;;;4993942;28;20037;-79
2022/07/27 08:24:15;;;;;;;5.60;3.90;;;19.40;99.70;;;;;;5009187;28;20029;-80
2022/07/27 08:26:41;;;;;;;4.60;3.88;;;19.30;99.90;;;;;;5022499;28;20067;-82
2022/07/27 08:29:07;;;;;;;6.05;4.30;;;19.10;99.90;;;;;;5016670;28;20500;-81
2022/07/27 08:31:33;;;;;;;4.45;3.70;;;19.00;99.90;;;;;;4995199;28;20046;-82
2022/07/27 08:33:58;;;;;;;3.67;3.38;;;19.00;99.90;;;;;;5018068;28;20092;-79
2022/07/27 08:36:24;;;;;;;3.60;3.30;;;19.00;99.90;;;;;;4999419;28;20049;-82
2022/07/27 08:38:50;;;;;;;7.72;4.10;;;19.00;99.90;;;;;;5016172;28;20033;-80
2022/07/27 08:41:19;;;;;;;4.97;3.10;;;19.10;99.90;;;;;;5036893;28;20058;-78
2022/07/27 08:43:47;;;;;;;4.75;3.42;;;19.10;99.90;;;;;;5041025;28;20034;-77
2022/07/27 08:46:17;;;;;;;2.75;2.53;;;19.10;99.90;;;;;;5036490;28;20040;-81
2022/07/27 08:48:43;;;;;;;4.05;2.60;;;19.10;99.90;;;;;;5036010;28;20033;-79
2022/07/27 08:51:10;;;;;;;3.40;2.58;;;19.00;99.90;;;;;;5029961;28;20037;-78
2022/07/27 08:53:36;;;;;;;3.05;2.72;;;18.90;99.90;;;;;;5008781;28;20033;-79
2022/07/27 08:56:02;;;;;;;4.47;2.75;;;18.80;99.90;;;;;;5036158;28;20132;-80
2022/07/27 08:58:28;;;;;;;4.60;2.63;;;18.80;99.90;;;;;;5022623;28;20377;-79
2022/07/27 09:00:54;;;;;;;2.72;2.35;;;18.80;99.90;;;;;;5041783;28;20033;-78
2022/07/27 09:03:21;;;;;;;2.50;2.30;;;18.80;99.90;;;;;;5019650;28;20049;-81
2022/07/27 09:05:50;;;;;;;4.70;3.13;;;18.80;99.90;;;;;;5013678;28;20032;-80
2022/07/27 09:08:23;;;;;;;4.63;2.95;;;18.80;99.90;;;;;;5016723;28;20041;-80
2022/07/27 09:10:49;;;;;;;5.93;2.40;;;18.80;99.90;;;;;;5048713;28;20483;-81
2022/07/27 09:13:25;;;;;;;3.92;2.50;;;18.80;99.90;;;;;;5018093;28;20041;-79
2022/07/27 09:15:58;;;;;;;3.53;2.00;;;18.70;99.90;;;;;;5035668;28;20022;-80
2022/07/27 09:18:26;;;;;;;4.43;2.60;;;18.70;99.90;;;;;;5050094;28;20057;-81
2022/07/27 09:21:17;;;;;;;3.55;2.13;;;18.70;99.90;;;;;;5027151;28;20030;-81
2022/07/27 09:23:50;;;;;;;4.95;2.20;;;18.80;99.90;;;;;;5027270;28;20033;-80
2022/07/27 09:26:19;;;;;;;5.53;2.17;;;18.80;99.90;;;;;;5046666;28;20032;-81
2022/07/27 09:28:46;;;;;;;6.00;2.20;;;18.80;99.90;;;;;;5038544;28;20029;-79
2022/07/27 09:31:14;;;;;;;2.75;2.10;;;19.00;99.90;;;;;;5040675;28;20112;-80
2022/07/27 09:33:41;;;;;;;3.33;1.88;;;19.00;99.80;;;;;;5043381;28;20037;-80
2022/07/27 09:36:07;;;;;;;6.03;2.33;;;19.10;99.90;;;;;;5041214;28;20487;-80
2022/07/27 09:38:32;;;;;;;3.50;2.20;;;19.10;99.80;;;;;;5047947;28;20062;-79
2022/07/27 09:41:06;;;;;;;4.40;2.22;;;19.10;99.90;;;;;;5038670;28;20495;-81
2022/07/27 09:43:45;;;;;;;4.55;2.42;;;19.20;99.80;;;;;;5043611;28;20035;-79
2022/07/27 09:46:11;;;;;;;3.65;2.53;;;19.20;98.80;;;;;;5042692;28;20049;-78
2022/07/27 09:48:37;;;;;;;3.40;2.67;;;19.20;98.80;;;;;;5050315;28;20103;-81
2022/07/27 09:51:06;;;;;;;4.82;2.65;;;19.20;98.50;;;;;;5029146;28;20053;-80
2022/07/27 09:53:33;;;;;;;2.97;2.17;;;19.30;98.10;;;;;;5023052;28;20036;-80
2022/07/27 09:56:14;;;;;;;3.97;2.15;;;19.30;98.00;;;;;;5030970;28;20038;-79
2022/07/27 09:59:16;;;;;;;4.13;2.53;;;19.30;97.90;;;;;;5046660;28;20503;-79
2022/07/27 10:01:42;;;;;;;3.03;1.80;;;19.40;97.70;;;;;;5046376;28;20808;-79
2022/07/27 10:04:08;;;;;;;2.65;1.98;;;19.50;97.20;;;;;;5052474;28;20040;-79
2022/07/27 10:06:34;;;;;;;4.13;2.40;;;19.60;96.30;;;;;;5049603;28;20037;-79
2022/07/27 10:09:00;;;;;;;4.50;2.20;;;19.70;96.10;;;;;;5049486;28;20025;-79
2022/07/27 10:11:27;;;;;;;2.72;2.15;;;19.80;95.80;;;;;;5055977;28;20049;-80
2022/07/27 10:13:54;;;;;;;3.15;1.60;;;19.90;95.20;;;;;;5052817;28;20033;-79
2022/07/27 10:16:23;;;;;;;4.03;2.38;;;20.00;94.50;;;;;;5042926;28;20271;-79
2022/07/27 10:18:49;;;;;;;3.00;1.70;;;20.10;94.60;;;;;;5049720;28;20039;-79
2022/07/27 10:21:16;;;;;;;2.95;1.52;;;20.20;94.20;;;;;;5040469;28;20512;-79
2022/07/27 10:23:57;;;;;;;1.20;1.10;;;20.30;94.40;;;;;;5036841;28;20862;-80
2022/07/27 10:26:23;;;;;;;2.88;1.50;;;20.40;93.30;;;;;;5042981;28;20132;-78
2022/07/27 10:28:58;;;;;;;3.60;1.75;;;20.60;93.80;;;;;;5050525;28;20033;-79
2022/07/27 10:31:36;;;;;;;1.47;1.20;;;20.80;93.00;;;;;;5049288;28;20089;-81
2022/07/27 10:34:04;;;;;;;3.03;1.50;;;21.00;91.90;;;;;;5029337;28;20430;-81
2022/07/27 10:36:30;;;;;;;4.95;1.73;;;21.10;91.70;;;;;;5035872;28;20025;-80
2022/07/27 10:38:58;;;;;;;3.50;1.73;;;21.20;91.30;;;;;;5036439;28;20610;-80
2022/07/27 10:41:25;;;;;;;2.38;1.45;;;21.30;91.10;;;;;;5027573;28;20099;-80
2022/07/27 10:44:16;;;;;;;3.35;1.70;;;21.30;91.10;;;;;;5050799;28;20029;-80
2022/07/27 10:46:50;;;;;;;3.63;1.40;;;21.20;90.30;;;;;;5043962;28;20056;-79
2022/07/27 10:49:25;;;;;;;4.93;1.20;;;21.10;90.90;;;;;;5027395;28;20032;-80
2022/07/27 10:51:54;;;;;;;;;;;21.00;91.20;;;;;;5028587;28;20025;-79
2022/07/27 10:54:25;;;;;;;4.28;1.80;;;21.00;90.60;;;;;;5046326;28;19909;-78
2022/07/27 10:56:53;;;;;;;4.35;1.40;;;20.90;90.00;;;;;;5014937;28;20105;-79
2022/07/27 10:59:38;;;;;;;3.80;1.73;;;20.80;91.10;;;;;;5041016;28;20044;-79
2022/07/27 11:02:09;;;;;;;3.70;1.60;;;20.70;90.90;;;;;;5054089;28;20027;-79
2022/07/27 11:04:44;;;;;;;2.50;1.70;;;20.70;91.00;;;;;;5028644;28;20696;-79
2022/07/27 11:07:11;;;;;;;4.18;1.40;;;20.80;91.60;;;;;;5019751;28;20025;-79
2022/07/27 11:09:37;;;;;;;2.05;1.40;;;20.80;91.00;;;;;;5038886;28;20021;-78
2022/07/27 11:12:05;;;;;;;1.98;1.67;;;20.90;90.80;;;;;;5031686;28;20030;-79
2022/07/27 11:14:46;;;;;;;1.98;1.73;;;21.00;90.50;;;;;;5025025;28;20044;-79
2022/07/27 11:17:13;;;;;;;3.42;1.65;;;21.00;89.90;;;;;;5040432;28;20085;-80
2022/07/27 11:19:38;;;;;;;3.88;1.98;;;21.10;90.30;;;;;;5039522;28;20029;-79
2022/07/27 11:22:05;;;;;;;2.15;1.80;;;21.10;90.40;;;;;;5042541;28;20060;-79
2022/07/27 11:24:35;;;;;;;3.00;2.13;;;21.20;88.70;;;;;;5044658;28;20026;-80
2022/07/27 11:27:02;;;;;;;2.00;1.80;;;21.30;89.60;;;;;;5028713;28;20053;-78
2022/07/27 11:29:33;;;;;;;1.65;1.50;;;21.40;90.40;;;;;;5038213;28;20481;-79
2022/07/27 11:31:59;;;;;;;3.80;2.28;;;21.60;90.50;;;;;;5042331;28;20645;-78
2022/07/27 11:34:36;;;;;;;3.80;2.10;;;21.80;86.30;;;;;;5042876;28;20090;-77
2022/07/27 11:37:12;;;;;;;2.70;1.90;;;21.80;86.80;;;;;;5043269;28;20033;-78
2022/07/27 11:39:38;;;;;;;3.03;1.98;;;21.90;86.40;;;;;;5022290;28;20044;-81
2022/07/27 11:42:04;;;;;;;3.83;1.80;;;22.00;85.60;;;;;;5023876;28;20038;-82
2022/07/27 11:44:30;;;;;;;2.50;1.90;;;22.10;84.60;;;;;;5026962;28;20095;-79
2022/07/27 11:46:57;;;;;;;2.30;1.63;;;22.10;84.20;;;;;;5037724;28;20523;-79
2022/07/27 11:49:27;;;;;;;3.22;1.92;;;22.10;83.50;;;;;;5028853;28;20033;-79
2022/07/27 11:51:55;;;;;;;2.28;1.67;;;22.10;83.30;;;;;;5037160;28;20106;-80
2022/07/27 11:54:32;;;;;;;3.72;2.17;;;22.10;82.70;;;;;;5027606;28;20411;-79
2022/07/27 11:57:05;;;;;;;3.00;2.00;;;22.10;82.20;;;;;;5010989;28;20036;-81
2022/07/27 11:59:31;;;;;;;2.58;1.98;;;22.10;82.70;;;;;;5013631;28;20038;-79
2022/07/27 12:02:05;;;;;;;3.05;2.00;;;22.10;82.70;;;;;;5028188;28;20064;-79
2022/07/27 12:04:34;;;;;;;2.78;1.92;;;22.00;82.10;;;;;;5029833;28;20053;-81
2022/07/27 12:07:09;;;;;;;3.75;2.10;;;22.00;81.10;;;;;;5029215;28;20045;-81
2022/07/27 12:09:43;;;;;;;4.93;2.13;;;22.00;81.40;;;;;;5013124;28;20405;-80
2022/07/27 12:12:20;;;;;;;3.30;1.77;;;22.00;82.30;;;;;;5017355;28;20402;-81
2022/07/27 12:14:53;;;;;;;3.63;2.10;;;22.20;83.00;;;;;;5054882;28;20041;-81
2022/07/27 12:17:24;;;;;;;2.35;1.80;;;22.50;83.50;;;;;;5032892;28;20025;-80
2022/07/27 12:19:57;;;;;;;5.28;1.90;;;22.90;80.10;;;;;;5030898;28;20084;-79
2022/07/27 12:22:25;;;;;;;4.15;1.90;;;23.20;80.80;;;;;;5017854;28;20052;-80
2022/07/27 12:24:51;;;;;;;3.20;1.88;;;23.50;77.40;;;;;;5025146;28;20030;-80
2022/07/27 12:27:17;;;;;;;4.18;2.28;;;23.80;75.40;;;;;;5035597;28;20033;-80
2022/07/27 12:29:55;;;;;;;3.25;1.60;;;24.00;74.40;;;;;;5033997;28;20060;-79
2022/07/27 12:32:21;;;;;;;2.88;1.60;;;24.00;73.10;;;;;;5032138;28;20060;-81
2022/07/27 12:34:47;;;;;;;2.25;1.70;;;24.00;72.80;;;;;;5036435;28;20075;-80
2022/07/27 12:37:13;;;;;;;2.47;1.88;;;24.00;71.80;;;;;;5024560;28;20094;-80
2022/07/27 12:39:44;;;;;;;3.45;1.70;;;23.90;71.80;;;;;;5030327;28;20030;-79
2022/07/27 12:42:11;;;;;;;2.05;1.40;;;23.80;72.00;;;;;;5035998;28;20619;-80
2022/07/27 12:44:43;;;;;;;3.65;1.65;;;23.80;72.50;;;;;;5035488;28;20037;-80
2022/07/27 12:50:09;;;;;;;3.83;1.52;;;23.80;73.00;;;;;;5034391;28;20037;-79
2022/07/27 12:52:39;;;;;;;3.75;2.10;;;24.00;71.50;;;;;;5037926;28;20144;-80
2022/07/27 12:55:05;;;;;;;4.00;1.52;;;24.10;72.10;;;;;;5042041;28;20680;-78
2022/07/27 12:57:31;;;;;;;3.85;1.83;;;24.30;71.50;;;;;;5046219;28;20033;-79